createdAt,value
2018-03-17T00:00:28.109Z,94456.56
2018-03-17T00:02:55.646Z,94466.91
2018-03-17T00:05:23.201Z,94456.91
2018-03-17T00:07:50.711Z,94453.84
2018-03-17T00:10:18.226Z,94468.66
2018-03-17T00:12:45.757Z,94454.34
2018-03-17T00:15:13.521Z,94463.80
2018-03-17T00:17:41.051Z,94478.69
2018-03-17T00:20:08.570Z,94472.45
2018-03-17T00:22:36.124Z,94464.16
2018-03-17T00:25:03.637Z,94460.27
2018-03-17T00:27:31.151Z,94465.20
2018-03-17T00:29:58.665Z,94460.86
2018-03-17T00:32:26.194Z,94466.45
2018-03-17T00:34:53.706Z,94463.88
2018-03-17T00:37:21.241Z,94457.05
2018-03-17T00:39:48.758Z,94448.37
2018-03-17T00:42:16.313Z,94454.81
2018-03-17T00:44:43.858Z,94454.61
2018-03-17T00:47:11.443Z,94448.38
2018-03-17T00:49:38.957Z,94451.48
2018-03-17T00:52:06.751Z,94455.61
2018-03-17T00:54:34.310Z,94447.58
2018-03-17T00:57:01.851Z,94442.03
2018-03-17T00:59:29.602Z,94437.98
2018-03-17T01:01:57.167Z,94440.02
2018-03-17T01:04:25.266Z,94444.34
2018-03-17T01:06:52.876Z,94430.91
2018-03-17T01:09:20.419Z,94417.13
2018-03-17T01:11:48.010Z,94433.02
2018-03-17T01:14:15.662Z,94446.72
2018-03-17T01:16:43.313Z,94431.10
2018-03-17T01:19:10.957Z,94421.15
2018-03-17T01:21:38.525Z,94435.48
2018-03-17T01:24:06.067Z,94438.41
2018-03-17T01:26:33.633Z,94426.72
2018-03-17T01:29:01.207Z,94427.92
2018-03-17T01:34:10.587Z,94427.61
2018-03-17T01:36:38.234Z,94424.58
2018-03-17T01:48:32.270Z,94432.00
2018-03-17T02:03:28.101Z,94430.17
2018-03-17T02:05:57.332Z,94443.13
2018-03-17T02:16:46.187Z,94430.77
2018-03-17T02:19:14.022Z,94422.54
2018-03-17T02:21:43.000Z,94429.38
2018-03-17T02:24:15.231Z,94425.86
2018-03-17T02:26:45.414Z,94432.90
2018-03-17T02:29:16.952Z,94433.00
2018-03-17T02:31:46.398Z,94442.30
2018-03-17T02:34:14.821Z,94440.11
2018-03-17T02:36:47.178Z,94436.86
2018-03-17T02:56:35.876Z,94429.63
2018-03-17T03:16:25.076Z,94444.91
2018-03-17T03:18:53.074Z,94447.11
2018-03-17T03:21:46.373Z,94440.84
2018-03-17T03:29:01.920Z,94460.22
2018-03-17T03:31:36.524Z,94456.97
2018-03-17T03:34:07.412Z,94440.14
2018-03-17T03:36:48.587Z,94455.89
2018-03-17T03:39:20.958Z,94455.81
2018-03-17T03:41:49.389Z,94442.30
2018-03-17T03:44:18.091Z,94442.12
2018-03-17T03:46:45.720Z,94438.14
2018-03-17T03:49:13.342Z,94451.70
2018-03-17T03:51:42.197Z,94438.73
2018-03-17T03:54:09.904Z,94451.12
2018-03-17T04:02:20.450Z,94441.07
2018-03-17T04:04:48.970Z,94444.81
2018-03-17T04:07:19.653Z,94445.37
2018-03-17T04:18:25.778Z,94431.66
2018-03-17T04:20:56.181Z,94433.31
2018-03-17T04:23:23.853Z,94435.91
2018-03-17T04:25:54.813Z,94432.66
2018-03-17T04:34:09.341Z,94418.30
2018-03-17T04:36:37.928Z,94428.55
2018-03-17T04:39:08.856Z,94426.17
2018-03-17T04:41:42.364Z,94424.51
2018-03-17T04:44:10.913Z,94427.92
2018-03-17T04:56:04.525Z,94421.13
2018-03-17T04:58:35.071Z,94426.31
2018-03-17T05:01:04.453Z,94420.44
2018-03-17T05:09:32.002Z,94412.61
2018-03-17T05:24:29.177Z,94393.91
2018-03-17T05:29:32.820Z,94376.54
2018-03-17T05:32:00.466Z,94385.80
2018-03-17T05:34:28.057Z,94392.42
2018-03-17T05:36:56.018Z,94377.98
2018-03-17T05:39:23.816Z,94374.01
2018-03-17T05:41:51.460Z,94370.34
2018-03-17T05:44:19.058Z,94372.80
2018-03-17T05:46:46.652Z,94373.13
2018-03-17T05:49:14.452Z,94379.64
2018-03-17T05:51:42.043Z,94381.27
2018-03-17T05:54:09.645Z,94377.28
2018-03-17T05:56:37.241Z,94367.17
2018-03-17T05:59:04.875Z,94377.63
2018-03-17T06:01:32.560Z,94383.44
2018-03-17T06:04:00.127Z,94386.47
2018-03-17T06:06:27.695Z,94382.67
2018-03-17T06:08:55.278Z,94374.27
2018-03-17T06:11:23.054Z,94376.55
2018-03-17T06:13:51.251Z,94356.78
2018-03-17T06:16:18.779Z,94356.89
2018-03-17T06:18:46.567Z,94346.81
2018-03-17T06:21:14.152Z,94363.12
2018-03-17T06:26:08.601Z,94369.87
2018-03-17T06:28:36.143Z,94383.47
2018-03-17T06:31:03.944Z,94393.58
2018-03-17T06:33:31.497Z,94409.45
2018-03-17T06:35:59.037Z,94404.22
2018-03-17T06:38:27.526Z,94396.89
2018-03-17T06:40:55.042Z,94400.07
2018-03-17T06:43:22.569Z,94401.22
2018-03-17T06:45:50.096Z,94407.50
2018-03-17T06:48:17.626Z,94381.82
2018-03-17T06:50:45.146Z,94399.76
2018-03-17T06:53:12.696Z,94386.34
2018-03-17T06:55:40.236Z,94373.52
2018-03-17T06:58:08.549Z,94366.50
2018-03-17T07:00:36.480Z,94382.56
2018-03-17T07:03:04.034Z,94385.48
2018-03-17T07:05:31.603Z,94388.83
2018-03-17T07:07:59.126Z,94391.87
2018-03-17T07:10:26.649Z,94393.60
2018-03-17T07:12:54.225Z,94384.20
2018-03-17T07:15:21.751Z,94358.90
2018-03-17T07:17:49.274Z,94391.28
2018-03-17T07:20:16.806Z,94412.39
2018-03-17T07:22:44.354Z,94391.37
2018-03-17T07:25:11.935Z,94405.64
2018-03-17T07:27:39.444Z,94383.08
2018-03-17T07:30:07.257Z,94368.53
2018-03-17T07:32:35.696Z,94380.55
2018-03-17T07:35:04.149Z,94336.80
2018-03-17T07:37:31.678Z,94355.77
2018-03-17T07:39:59.295Z,94341.03
2018-03-17T07:42:26.820Z,94354.63
2018-03-17T07:44:54.389Z,94360.64
2018-03-17T07:47:21.948Z,94370.38
2018-03-17T07:49:49.489Z,94362.77
2018-03-17T07:52:17.078Z,94363.95
2018-03-17T07:54:44.710Z,94377.25
2018-03-17T07:57:12.247Z,94344.45
2018-03-17T07:59:39.800Z,94364.78
2018-03-17T08:02:07.362Z,94337.96
2018-03-17T08:04:34.879Z,94346.64
2018-03-17T08:07:02.448Z,94340.61
2018-03-17T08:09:30.001Z,94339.47
2018-03-17T08:11:57.535Z,94320.44
2018-03-17T08:14:25.073Z,94341.58
2018-03-17T08:16:52.639Z,94338.20
2018-03-17T08:19:20.205Z,94351.09
2018-03-17T08:21:47.792Z,94329.19
2018-03-17T08:24:15.382Z,94321.53
2018-03-17T08:26:42.921Z,94316.71
2018-03-17T08:29:10.470Z,94311.32
2018-03-17T08:31:37.996Z,94301.28
2018-03-17T08:34:05.561Z,94315.60
2018-03-17T08:36:33.110Z,94300.77
2018-03-17T08:39:00.638Z,94284.70
2018-03-17T08:41:28.150Z,94275.27
2018-03-17T08:43:55.671Z,94298.16
2018-03-17T08:46:23.212Z,94261.75
2018-03-17T08:48:50.735Z,94239.99
2018-03-17T08:51:18.254Z,94245.03
2018-03-17T08:53:45.838Z,94253.95
2018-03-17T08:56:13.367Z,94261.87
2018-03-17T08:58:40.897Z,94242.11
2018-03-17T09:01:08.444Z,94246.37
2018-03-17T09:03:35.975Z,94238.17
2018-03-17T09:06:03.522Z,94206.64
2018-03-17T09:08:31.092Z,94216.72
2018-03-17T09:10:58.847Z,94229.32
2018-03-17T09:13:26.373Z,94226.70
2018-03-17T09:15:53.909Z,94198.05
2018-03-17T09:18:21.493Z,94176.97
2018-03-17T09:20:49.023Z,94196.05
2018-03-17T09:23:16.582Z,94188.31
2018-03-17T09:25:44.157Z,94154.63
2018-03-17T09:28:11.717Z,94149.83
2018-03-17T09:30:39.327Z,94164.78
2018-03-17T09:33:06.903Z,94155.47
2018-03-17T09:35:34.434Z,94156.52
2018-03-17T09:38:01.967Z,94150.57
2018-03-17T09:40:29.490Z,94154.60
2018-03-17T09:42:57.013Z,94135.01
2018-03-17T09:45:24.555Z,94145.09
2018-03-17T09:47:52.150Z,94149.10
2018-03-17T09:50:20.154Z,94126.98
2018-03-17T09:52:47.675Z,94144.14
2018-03-17T09:55:15.229Z,94123.08
2018-03-17T09:57:42.791Z,94123.59
2018-03-17T10:00:10.391Z,94116.55
2018-03-17T10:02:37.952Z,94115.39
2018-03-17T10:05:06.093Z,94117.13
2018-03-17T10:07:33.629Z,94129.33
2018-03-17T10:10:01.176Z,94093.97
2018-03-17T10:12:28.723Z,94094.13
2018-03-17T10:14:56.237Z,94091.06
2018-03-17T10:17:23.794Z,94090.69
2018-03-17T10:19:51.374Z,94090.33
2018-03-17T10:22:18.907Z,94068.23
2018-03-17T10:24:46.413Z,94066.23
2018-03-17T10:27:13.958Z,94055.75
2018-03-17T10:29:42.233Z,94052.93
2018-03-17T10:32:09.752Z,94033.47
2018-03-17T10:34:37.286Z,94007.77
2018-03-17T10:37:04.806Z,94009.55
2018-03-17T10:39:32.360Z,94005.56
2018-03-17T10:41:59.889Z,93978.08
2018-03-17T10:44:27.418Z,93957.33
2018-03-17T10:46:55.051Z,93958.48
2018-03-17T10:49:23.053Z,93954.22
2018-03-17T10:51:50.608Z,93934.19
2018-03-17T10:54:18.124Z,93918.41
2018-03-17T10:56:45.646Z,93908.19
2018-03-17T10:59:13.185Z,93891.53
2018-03-17T11:01:42.511Z,93897.03
2018-03-17T11:04:10.029Z,93902.03
2018-03-17T11:06:37.573Z,93885.17
2018-03-17T11:09:05.121Z,93881.66
2018-03-17T11:11:32.680Z,93868.25
2018-03-17T11:14:00.199Z,93879.17
2018-03-17T11:16:27.718Z,93853.45
2018-03-17T11:18:55.257Z,93847.15
2018-03-17T11:21:22.779Z,93845.21
2018-03-17T11:23:53.634Z,93844.47
2018-03-17T11:26:21.199Z,93840.64
2018-03-17T11:28:48.732Z,93845.97
2018-03-17T11:31:16.261Z,93866.14
2018-03-17T11:33:43.788Z,93875.47
2018-03-17T11:36:11.473Z,93886.72
2018-03-17T11:38:39.009Z,93898.27
2018-03-17T11:41:06.568Z,93899.74
2018-03-17T11:43:34.186Z,93892.86
2018-03-17T11:46:02.267Z,93881.41
2018-03-17T11:48:30.155Z,93863.48
2018-03-17T11:50:57.776Z,93823.58
2018-03-17T11:53:25.347Z,93848.75
2018-03-17T11:55:52.925Z,93853.40
2018-03-17T11:58:20.729Z,93829.20
2018-03-17T12:00:48.296Z,93821.42
2018-03-17T12:03:15.867Z,93813.83
2018-03-17T12:05:43.483Z,93799.26
2018-03-17T12:08:11.036Z,93816.30
2018-03-17T12:10:39.475Z,93763.41
2018-03-17T12:13:07.025Z,93824.42
2018-03-17T12:15:34.682Z,93767.64
2018-03-17T12:18:02.264Z,93806.88
2018-03-17T12:20:29.871Z,93806.09
2018-03-17T12:22:57.402Z,93809.57
2018-03-17T12:25:25.035Z,93774.61
2018-03-17T12:27:52.645Z,93818.83
2018-03-17T12:30:20.213Z,93807.95
2018-03-17T12:32:48.029Z,93797.91
2018-03-17T12:35:19.311Z,93828.95
2018-03-17T12:37:46.888Z,93831.34
2018-03-17T12:40:14.526Z,93849.63
2018-03-17T12:42:42.909Z,93822.58
2018-03-17T12:45:10.463Z,93790.64
2018-03-17T12:47:37.976Z,93795.70
2018-03-17T12:50:05.762Z,93781.33
2018-03-17T12:52:41.796Z,93802.77
2018-03-17T12:55:09.321Z,93804.26
2018-03-17T12:57:53.242Z,93768.77
2018-03-17T13:00:28.482Z,93743.98
2018-03-17T13:03:19.979Z,93726.41
2018-03-17T13:05:47.551Z,93741.23
2018-03-17T13:08:15.099Z,93713.45
2018-03-17T13:10:42.613Z,93712.89
2018-03-17T13:13:10.123Z,93746.75
2018-03-17T13:15:38.594Z,93740.95
2018-03-17T13:18:09.505Z,93666.73
2018-03-17T13:20:37.942Z,93655.31
2018-03-17T13:23:20.717Z,93666.96
2018-03-17T13:25:48.230Z,93673.61
2018-03-17T13:28:29.259Z,93655.45
2018-03-17T13:30:56.835Z,93649.26
2018-03-17T13:33:24.418Z,93633.27
2018-03-17T13:36:03.629Z,93630.95
2018-03-17T13:38:31.151Z,93604.15
2018-03-17T13:40:58.695Z,93638.40
2018-03-17T13:43:26.218Z,93606.94
2018-03-17T13:45:53.804Z,93635.40
2018-03-17T13:48:21.347Z,93618.26
2018-03-17T13:50:48.883Z,93600.73
2018-03-17T13:53:16.433Z,93628.67
2018-03-17T13:55:43.982Z,93623.09
2018-03-17T13:58:11.512Z,93617.88
2018-03-17T14:00:39.141Z,93634.58
2018-03-17T14:03:06.767Z,93605.26
2018-03-17T14:05:34.293Z,93626.42
2018-03-17T14:08:01.823Z,93596.88
2018-03-17T14:10:30.314Z,93622.28
2018-03-17T14:12:57.865Z,93604.30
2018-03-17T14:15:25.414Z,93606.58
2018-03-17T14:17:53.773Z,93597.02
2018-03-17T14:20:21.295Z,93625.34
2018-03-17T14:22:48.871Z,93591.51
2018-03-17T14:25:16.438Z,93593.09
2018-03-17T14:27:43.993Z,93623.99
2018-03-17T14:30:11.600Z,93599.81
2018-03-17T14:32:39.174Z,93603.25
2018-03-17T14:35:06.709Z,93622.09
2018-03-17T14:37:34.227Z,93616.81
2018-03-17T14:40:01.786Z,93643.56
2018-03-17T14:42:29.302Z,93631.47
2018-03-17T14:44:56.834Z,93610.98
2018-03-17T14:47:24.483Z,93606.46
2018-03-17T14:49:52.006Z,93609.52
2018-03-17T14:52:19.573Z,93611.34
2018-03-17T14:54:47.063Z,93613.70
2018-03-17T14:57:15.050Z,93597.55
2018-03-17T14:59:42.618Z,93616.42
2018-03-17T15:02:10.139Z,93608.08
2018-03-17T15:04:37.654Z,93599.28
2018-03-17T15:07:05.190Z,93612.94
2018-03-17T15:09:32.735Z,93611.13
2018-03-17T15:12:00.567Z,93623.20
2018-03-17T15:14:28.083Z,93635.00
2018-03-17T15:16:55.607Z,93583.57
2018-03-17T15:19:25.389Z,93588.72
2018-03-17T15:21:53.045Z,93611.00
2018-03-17T15:24:20.599Z,93608.74
2018-03-17T15:26:48.163Z,93596.64
2018-03-17T15:29:15.702Z,93624.07
2018-03-17T15:31:44.179Z,93629.57
2018-03-17T15:34:12.415Z,93607.84
2018-03-17T15:36:40.045Z,93604.42
2018-03-17T15:39:07.595Z,93585.88
2018-03-17T15:41:35.169Z,93614.94
2018-03-17T15:44:02.715Z,93593.94
2018-03-17T15:46:30.231Z,93593.72
2018-03-17T15:48:57.751Z,93593.45
2018-03-17T15:51:25.311Z,93613.16
2018-03-17T15:53:52.900Z,93605.12
2018-03-17T15:56:20.545Z,93595.81
2018-03-17T15:58:48.101Z,93596.98
2018-03-17T16:01:15.658Z,93586.68
2018-03-17T16:03:43.174Z,93594.31
2018-03-17T16:06:10.798Z,93573.74
2018-03-17T16:08:38.578Z,93578.66
2018-03-17T16:11:06.087Z,93574.64
2018-03-17T16:13:33.674Z,93587.64
2018-03-17T16:16:01.225Z,93585.00
2018-03-17T16:18:28.781Z,93609.41
2018-03-17T16:20:56.376Z,93622.90
2018-03-17T16:23:24.098Z,93611.27
2018-03-17T16:25:51.856Z,93607.83
2018-03-17T16:28:19.397Z,93638.62
2018-03-17T16:30:46.946Z,93631.69
2018-03-17T16:33:14.484Z,93636.72
2018-03-17T16:35:42.017Z,93643.27
2018-03-17T16:38:09.573Z,93610.86
2018-03-17T16:40:37.105Z,93648.14
2018-03-17T16:43:04.664Z,93635.82
2018-03-17T16:45:32.912Z,93620.54
2018-03-17T16:48:00.431Z,93623.95
2018-03-17T16:50:28.083Z,93633.08
2018-03-17T16:52:55.682Z,93621.28
2018-03-17T16:55:23.198Z,93613.98
2018-03-17T16:57:50.770Z,93645.15
2018-03-17T17:00:18.574Z,93634.09
2018-03-17T17:02:46.823Z,93624.91
2018-03-17T17:05:14.342Z,93642.08
2018-03-17T17:07:41.945Z,93629.33
2018-03-17T17:10:09.487Z,93615.95
2018-03-17T17:12:37.019Z,93623.20
2018-03-17T17:15:04.540Z,93615.03
2018-03-17T17:17:32.073Z,93629.86
2018-03-17T17:19:59.614Z,93626.13
2018-03-17T17:22:27.285Z,93619.41
2018-03-17T17:24:54.804Z,93628.21
2018-03-17T17:27:22.338Z,93636.98
2018-03-17T17:29:49.889Z,93621.31
2018-03-17T17:32:17.439Z,93637.41
2018-03-17T17:34:44.983Z,93651.56
2018-03-17T17:37:12.637Z,93663.59
2018-03-17T17:39:40.165Z,93672.77
2018-03-17T17:42:07.837Z,93657.58
2018-03-17T17:44:35.380Z,93659.27
2018-03-17T17:47:02.903Z,93646.20
2018-03-17T17:49:30.445Z,93651.17
2018-03-17T17:51:57.974Z,93655.19
2018-03-17T17:54:25.546Z,93642.23
2018-03-17T17:56:53.149Z,93651.53
2018-03-17T17:59:21.604Z,93674.80
2018-03-17T18:01:49.109Z,93652.89
2018-03-17T18:04:16.638Z,93663.67
2018-03-17T18:06:44.182Z,93654.13
2018-03-17T18:09:11.699Z,93670.92
2018-03-17T18:11:39.435Z,93702.84
2018-03-17T18:14:06.973Z,93669.13
2018-03-17T18:16:34.506Z,93661.52
2018-03-17T18:19:02.073Z,93661.98
2018-03-17T18:21:29.619Z,93682.83
2018-03-17T18:23:57.234Z,93686.63
2018-03-17T18:26:32.663Z,93683.11
2018-03-17T18:29:00.238Z,93692.80
2018-03-17T18:31:27.815Z,93723.09
2018-03-17T18:33:55.365Z,93696.22
2018-03-17T18:36:22.904Z,93685.30
2018-03-17T18:38:50.425Z,93711.16
2018-03-17T18:41:17.991Z,93673.67
2018-03-17T18:43:45.787Z,93678.64
2018-03-17T18:46:14.327Z,93661.31
2018-03-17T18:48:41.852Z,93678.99
2018-03-17T18:51:09.429Z,93661.35
2018-03-17T18:53:37.711Z,93663.39
2018-03-17T18:56:05.258Z,93701.85
2018-03-17T18:58:38.532Z,93688.26
2018-03-17T19:01:06.122Z,93684.95
2018-03-17T19:03:33.717Z,93702.94
2018-03-17T19:06:01.308Z,93658.31
2018-03-17T19:08:28.837Z,93662.27
2018-03-17T19:10:56.383Z,93670.68
2018-03-17T19:13:23.941Z,93599.23
2018-03-17T19:15:51.485Z,93591.37
2018-03-17T19:18:19.098Z,93639.73
2018-03-17T19:20:46.745Z,93622.69
2018-03-17T19:23:14.293Z,93642.27
2018-03-17T19:25:41.813Z,93631.34
2018-03-17T19:28:09.321Z,93616.45
2018-03-17T19:30:36.862Z,93651.87
2018-03-17T19:33:04.409Z,93628.59
2018-03-17T19:35:31.939Z,93624.41
2018-03-17T19:37:59.512Z,93628.87
2018-03-17T19:40:27.142Z,93616.52
2018-03-17T19:42:54.879Z,93595.92
2018-03-17T19:45:22.543Z,93595.39
2018-03-17T19:47:50.115Z,93628.14
2018-03-17T19:50:17.635Z,93617.65
2018-03-17T19:52:45.208Z,93623.07
2018-03-17T19:55:12.754Z,93621.98
2018-03-17T19:57:40.349Z,93629.02
2018-03-17T20:00:08.990Z,93575.78
2018-03-17T20:02:36.506Z,93599.09
2018-03-17T20:05:04.113Z,93587.90
2018-03-17T20:07:31.692Z,93569.61
2018-03-17T20:09:59.237Z,93617.44
2018-03-17T20:12:26.826Z,93601.45
2018-03-17T20:14:54.367Z,93575.16
2018-03-17T20:17:21.926Z,93574.88
2018-03-17T20:19:49.438Z,93621.38
2018-03-17T20:22:17.031Z,93543.98
2018-03-17T20:24:44.641Z,93577.81
2018-03-17T20:27:12.215Z,93544.23
2018-03-17T20:29:39.797Z,93564.68
2018-03-17T20:32:07.406Z,93525.47
2018-03-17T20:34:34.947Z,93540.25
2018-03-17T20:37:02.544Z,93557.36
2018-03-17T20:39:31.807Z,93564.83
2018-03-17T20:42:00.254Z,93559.95
2018-03-17T20:44:27.793Z,93583.89
2018-03-17T20:46:55.440Z,93553.73
2018-03-17T20:49:22.976Z,93606.39
2018-03-17T20:51:50.504Z,93525.76
2018-03-17T20:54:18.033Z,93576.70
2018-03-17T20:56:45.616Z,93553.14
2018-03-17T20:59:13.208Z,93524.69
2018-03-17T21:01:40.758Z,93520.67
2018-03-17T21:04:08.295Z,93548.20
2018-03-17T21:06:35.818Z,93553.59
2018-03-17T21:09:03.373Z,93524.49
2018-03-17T21:11:30.907Z,93534.45
2018-03-17T21:13:58.480Z,93534.98
2018-03-17T21:16:26.030Z,93536.88
2018-03-17T21:18:53.541Z,93550.22
2018-03-17T21:21:21.055Z,93525.69
2018-03-17T21:23:48.572Z,93541.42
2018-03-17T21:26:16.162Z,93597.31
2018-03-17T21:28:44.931Z,93547.33
2018-03-17T21:31:12.486Z,93512.89
2018-03-17T21:33:40.027Z,93504.25
2018-03-17T21:36:07.570Z,93576.96
2018-03-17T21:38:35.187Z,93514.67
2018-03-17T21:41:02.706Z,93512.36
2018-03-17T21:43:30.244Z,93519.23
2018-03-17T21:45:57.782Z,93527.41
2018-03-17T21:48:25.312Z,93498.74
2018-03-17T21:50:52.831Z,93490.80
2018-03-17T21:53:20.399Z,93481.19
2018-03-17T21:55:47.989Z,93472.22
2018-03-17T21:58:15.528Z,93449.59
2018-03-17T22:00:43.185Z,93453.19
2018-03-17T22:03:10.697Z,93476.16
2018-03-17T22:05:38.572Z,93475.77
2018-03-17T22:08:06.103Z,93463.05
2018-03-17T22:10:33.932Z,93452.84
2018-03-17T22:13:01.523Z,93448.91
2018-03-17T22:15:29.046Z,93440.80
2018-03-17T22:17:56.655Z,93434.19
2018-03-17T22:20:24.187Z,93429.14
2018-03-17T22:22:51.818Z,93416.57
2018-03-17T22:25:19.362Z,93448.34
2018-03-17T22:27:46.940Z,93381.10
2018-03-17T22:30:14.537Z,93458.45
2018-03-17T22:32:52.085Z,93402.97
2018-03-17T22:35:30.340Z,93414.17
2018-03-17T22:37:57.886Z,93373.38
2018-03-17T22:40:25.478Z,93391.41
2018-03-17T22:42:53.012Z,93434.85
2018-03-17T22:45:21.167Z,93395.78
2018-03-17T22:47:48.736Z,93402.81
2018-03-17T22:50:17.619Z,93389.27
2018-03-17T22:52:56.882Z,93399.81
2018-03-17T22:55:24.403Z,93439.41
2018-03-17T22:58:00.707Z,93402.19
2018-03-17T23:00:28.279Z,93484.14
2018-03-17T23:02:55.878Z,93424.55
2018-03-17T23:05:23.455Z,93426.17
2018-03-17T23:07:53.066Z,93459.14
2018-03-17T23:10:40.074Z,93448.83
2018-03-17T23:13:07.642Z,93470.42
2018-03-17T23:15:35.260Z,93487.83
2018-03-17T23:18:02.786Z,93452.56
2018-03-17T23:20:30.334Z,93444.72
2018-03-17T23:22:59.417Z,93452.91
2018-03-17T23:25:26.987Z,93414.16
2018-03-17T23:27:55.283Z,93452.25
